Forside
METAR-TAF:

METAR-TAF

Lufthavne :

Burnett County Airport

Siren, Wisconsin, USA

Breddekreds: 45-49-22N, længdekreds: 092-22-21W, højde: 301 m

Aktuelle vejr

Denne rapport blev lavet for 21 minutter siden, kl. 09:55 UTC
Vind 4 kt fra sydsydøst
Temperatur 0°C
Fugtighed 93%
Tryk 1005 hPa
Sigt: 4.8 km
Overskyet i en højde af 500 ft
dis

METAR: KRZN 190955Z AUTO 15004KT 3SM BR OVC005 00/M01 A2968 RMK AO2 T10021009

Tid: 04:16 (10:16 UTC)


TAF: fraværende

Vejrobservationer og prognoser fra mere end 4000 lufthavne (METAR og TAF).

De gule og røde prikker repræsenterer de meteorologiske stationer.

Flyt musen over at se navnet på stationen.

Så klik over at se vejr observationer og prognoser.

At skifte det kort: Klik på de grønne knapper med et sort kors for at zoome ind; på den grønne knap med en bindestreg for at zoome ud; eller på de grønne pile for tilstødende kort.


METAR-TAF: